sensor_id;sensor_type;location;lat;lon;timestamp;pressure;altitude;pressure_sealevel;temperature;humidity
13581;BME280;6861;46.170;7.222;2023-01-28T00:02:03;95988.56;;;4.33;48.69
13581;BME280;6861;46.170;7.222;2023-01-28T00:04:31;95986.88;;;4.26;48.63
13581;BME280;6861;46.170;7.222;2023-01-28T00:06:59;95991.72;;;4.23;48.94
13581;BME280;6861;46.170;7.222;2023-01-28T00:09:27;95990.59;;;4.19;49.40
13581;BME280;6861;46.170;7.222;2023-01-28T00:11:55;95987.44;;;4.17;48.92
13581;BME280;6861;46.170;7.222;2023-01-28T00:14:24;95981.25;;;4.18;48.89
13581;BME280;6861;46.170;7.222;2023-01-28T00:16:54;95986.19;;;4.19;48.82
13581;BME280;6861;46.170;7.222;2023-01-28T00:19:22;95984.41;;;4.20;48.96
13581;BME280;6861;46.170;7.222;2023-01-28T00:21:50;95970.88;;;4.18;49.23
13581;BME280;6861;46.170;7.222;2023-01-28T00:24:18;95974.03;;;4.20;48.78
13581;BME280;6861;46.170;7.222;2023-01-28T00:26:47;95972.03;;;4.22;48.93
13581;BME280;6861;46.170;7.222;2023-01-28T00:29:15;95976.19;;;4.23;48.83
13581;BME280;6861;46.170;7.222;2023-01-28T00:31:43;95975.41;;;4.22;48.99
13581;BME280;6861;46.170;7.222;2023-01-28T00:34:13;95974.03;;;4.20;49.13
13581;BME280;6861;46.170;7.222;2023-01-28T00:36:41;95972.25;;;4.20;49.07
13581;BME280;6861;46.170;7.222;2023-01-28T00:39:13;95973.03;;;4.21;49.26
13581;BME280;6861;46.170;7.222;2023-01-28T00:41:41;95977.06;;;4.17;49.49
13581;BME280;6861;46.170;7.222;2023-01-28T00:44:09;95984.28;;;4.15;49.17
13581;BME280;6861;46.170;7.222;2023-01-28T00:46:38;95977.75;;;4.12;49.21
13581;BME280;6861;46.170;7.222;2023-01-28T00:49:07;95978.41;;;4.08;49.06
13581;BME280;6861;46.170;7.222;2023-01-28T00:51:37;95975.69;;;4.03;49.28
13581;BME280;6861;46.170;7.222;2023-01-28T00:54:05;95978.16;;;3.98;49.56
13581;BME280;6861;46.170;7.222;2023-01-28T00:56:33;95976.03;;;3.94;49.37
13581;BME280;6861;46.170;7.222;2023-01-28T00:59:02;95973.66;;;3.93;49.15
13581;BME280;6861;46.170;7.222;2023-01-28T01:01:30;95975.00;;;3.95;49.09
13581;BME280;6861;46.170;7.222;2023-01-28T01:03:58;95965.66;;;3.94;49.36
13581;BME280;6861;46.170;7.222;2023-01-28T01:06:30;95974.22;;;3.95;49.24
13581;BME280;6861;46.170;7.222;2023-01-28T01:09:01;95972.56;;;4.01;49.34
13581;BME280;6861;46.170;7.222;2023-01-28T01:11:29;95964.34;;;4.04;49.12
13581;BME280;6861;46.170;7.222;2023-01-28T01:13:59;95968.06;;;4.08;49.29
13581;BME280;6861;46.170;7.222;2023-01-28T01:16:29;95971.22;;;4.10;49.36
13581;BME280;6861;46.170;7.222;2023-01-28T01:18:59;95972.78;;;4.11;49.31
13581;BME280;6861;46.170;7.222;2023-01-28T01:21:28;95967.94;;;4.14;49.62
13581;BME280;6861;46.170;7.222;2023-01-28T01:23:56;95975.28;;;4.17;49.32
13581;BME280;6861;46.170;7.222;2023-01-28T01:26:26;95972.91;;;4.16;49.39
13581;BME280;6861;46.170;7.222;2023-01-28T01:28:54;95970.31;;;4.16;49.21
13581;BME280;6861;46.170;7.222;2023-01-28T01:31:22;95969.75;;;4.14;49.34
13581;BME280;6861;46.170;7.222;2023-01-28T01:33:51;95965.59;;;4.13;49.24
13581;BME280;6861;46.170;7.222;2023-01-28T01:36:20;95962.44;;;4.11;49.49
13581;BME280;6861;46.170;7.222;2023-01-28T01:38:52;95955.69;;;4.10;49.55
13581;BME280;6861;46.170;7.222;2023-01-28T01:41:27;95958.84;;;4.12;49.78
13581;BME280;6861;46.170;7.222;2023-01-28T01:43:58;95965.59;;;4.13;49.32
13581;BME280;6861;46.170;7.222;2023-01-28T01:46:33;95971.09;;;4.05;49.43
13581;BME280;6861;46.170;7.222;2023-01-28T01:49:11;95973.44;;;3.94;49.58
13581;BME280;6861;46.170;7.222;2023-01-28T01:51:43;95971.28;;;3.91;49.68
13581;BME280;6861;46.170;7.222;2023-01-28T01:54:13;95971.72;;;3.88;49.78
13581;BME280;6861;46.170;7.222;2023-01-28T01:56:46;95967.56;;;3.87;49.33
13581;BME280;6861;46.170;7.222;2023-01-28T01:59:20;95968.00;;;3.84;49.19
13581;BME280;6861;46.170;7.222;2023-01-28T02:01:51;95962.16;;;3.77;49.43
13581;BME280;6861;46.170;7.222;2023-01-28T02:04:22;95968.56;;;3.75;49.45
13581;BME280;6861;46.170;7.222;2023-01-28T02:06:52;95965.28;;;3.79;49.45
13581;BME280;6861;46.170;7.222;2023-01-28T02:09:23;95960.25;;;3.84;49.29
13581;BME280;6861;46.170;7.222;2023-01-28T02:11:54;95954.31;;;3.95;49.45
13581;BME280;6861;46.170;7.222;2023-01-28T02:14:25;95959.16;;;4.04;49.37
13581;BME280;6861;46.170;7.222;2023-01-28T02:16:57;95955.56;;;4.05;49.14
13581;BME280;6861;46.170;7.222;2023-01-28T02:19:30;95959.28;;;4.09;49.38
13581;BME280;6861;46.170;7.222;2023-01-28T02:22:05;95960.41;;;4.13;49.82
13581;BME280;6861;46.170;7.222;2023-01-28T02:24:55;95957.16;;;4.17;49.42
13581;BME280;6861;46.170;7.222;2023-01-28T02:27:35;95961.66;;;4.22;49.28
13581;BME280;6861;46.170;7.222;2023-01-28T02:30:11;95960.41;;;4.24;49.44
13581;BME280;6861;46.170;7.222;2023-01-28T02:32:45;95958.41;;;4.26;49.29
13581;BME280;6861;46.170;7.222;2023-01-28T02:35:25;95957.03;;;4.24;49.33
13581;BME280;6861;46.170;7.222;2023-01-28T02:38:01;95960.88;;;4.21;49.43
13581;BME280;6861;46.170;7.222;2023-01-28T02:40:33;95964.56;;;4.14;49.82
13581;BME280;6861;46.170;7.222;2023-01-28T02:43:29;95965.69;;;4.06;49.89
13581;BME280;6861;46.170;7.222;2023-01-28T02:46:02;95963.78;;;4.02;49.69
13581;BME280;6861;46.170;7.222;2023-01-28T02:48:55;95958.16;;;4.05;49.82
13581;BME280;6861;46.170;7.222;2023-01-28T02:51:31;95958.50;;;4.08;49.96
13581;BME280;6861;46.170;7.222;2023-01-28T02:54:09;95955.13;;;4.08;49.80
13581;BME280;6861;46.170;7.222;2023-01-28T02:56:44;95961.09;;;4.08;49.61
13581;BME280;6861;46.170;7.222;2023-01-28T02:59:16;95970.19;;;4.11;49.67
13581;BME280;6861;46.170;7.222;2023-01-28T03:02:07;95969.75;;;4.14;50.11
13581;BME280;6861;46.170;7.222;2023-01-28T03:04:40;95971.78;;;4.12;50.09
13581;BME280;6861;46.170;7.222;2023-01-28T03:07:11;95970.09;;;4.06;50.13
13581;BME280;6861;46.170;7.222;2023-01-28T03:09:44;95974.13;;;4.02;50.20
13581;BME280;6861;46.170;7.222;2023-01-28T03:12:16;95975.00;;;3.95;50.50
13581;BME280;6861;46.170;7.222;2023-01-28T03:15:06;95975.47;;;3.92;50.47
13581;BME280;6861;46.170;7.222;2023-01-28T03:17:59;95977.59;;;3.95;50.66
13581;BME280;6861;46.170;7.222;2023-01-28T03:20:49;95979.75;;;3.99;50.30
13581;BME280;6861;46.170;7.222;2023-01-28T03:23:39;95988.66;;;4.03;49.90
13581;BME280;6861;46.170;7.222;2023-01-28T03:26:27;95986.63;;;4.05;50.02
13581;BME280;6861;46.170;7.222;2023-01-28T03:29:16;95990.00;;;4.05;50.02
13581;BME280;6861;46.170;7.222;2023-01-28T03:32:03;95988.22;;;4.06;50.07
13581;BME280;6861;46.170;7.222;2023-01-28T03:34:51;95996.97;;;4.05;50.08
13581;BME280;6861;46.170;7.222;2023-01-28T03:37:37;95993.38;;;4.06;49.63
13581;BME280;6861;46.170;7.222;2023-01-28T03:40:06;95995.63;;;4.02;50.11
13581;BME280;6861;46.170;7.222;2023-01-28T03:42:35;95994.28;;;4.00;50.43
13581;BME280;6861;46.170;7.222;2023-01-28T03:45:04;95998.44;;;4.01;50.31
13581;BME280;6861;46.170;7.222;2023-01-28T03:47:33;96000.59;;;4.04;50.25
13581;BME280;6861;46.170;7.222;2023-01-28T03:50:03;95998.00;;;4.04;50.24
13581;BME280;6861;46.170;7.222;2023-01-28T03:52:32;95994.41;;;4.05;50.31
13581;BME280;6861;46.170;7.222;2023-01-28T03:55:00;96005.88;;;4.09;50.04
13581;BME280;6861;46.170;7.222;2023-01-28T03:57:39;95999.69;;;4.10;50.38
13581;BME280;6861;46.170;7.222;2023-01-28T04:00:08;96010.28;;;4.08;50.35
13581;BME280;6861;46.170;7.222;2023-01-28T04:02:37;96000.72;;;4.09;50.39
13581;BME280;6861;46.170;7.222;2023-01-28T04:05:08;96002.72;;;4.07;50.39
13581;BME280;6861;46.170;7.222;2023-01-28T04:07:39;96006.91;;;4.08;50.37
13581;BME280;6861;46.170;7.222;2023-01-28T04:10:08;96011.06;;;4.09;50.46
13581;BME280;6861;46.170;7.222;2023-01-28T04:12:37;96009.94;;;4.05;50.52
13581;BME280;6861;46.170;7.222;2023-01-28T04:15:06;96016.91;;;4.04;50.44
13581;BME280;6861;46.170;7.222;2023-01-28T04:17:45;96020.72;;;4.02;50.55
13581;BME280;6861;46.170;7.222;2023-01-28T04:20:16;96027.69;;;4.01;50.62
13581;BME280;6861;46.170;7.222;2023-01-28T04:22:44;96030.06;;;4.03;50.74
13581;BME280;6861;46.170;7.222;2023-01-28T04:25:12;96020.28;;;4.05;50.86
13581;BME280;6861;46.170;7.222;2023-01-28T04:27:41;96025.91;;;4.02;50.65
13581;BME280;6861;46.170;7.222;2023-01-28T04:30:10;96026.69;;;4.02;50.63
13581;BME280;6861;46.170;7.222;2023-01-28T04:32:38;96028.94;;;3.99;50.71
13581;BME280;6861;46.170;7.222;2023-01-28T04:35:06;96028.38;;;3.97;50.31
13581;BME280;6861;46.170;7.222;2023-01-28T04:37:36;96013.28;;;3.93;50.72
13581;BME280;6861;46.170;7.222;2023-01-28T04:40:06;96023.19;;;3.97;50.27
13581;BME280;6861;46.170;7.222;2023-01-28T04:42:34;96017.56;;;4.00;50.66
13581;BME280;6861;46.170;7.222;2023-01-28T04:45:03;96024.09;;;4.02;50.49
13581;BME280;6861;46.170;7.222;2023-01-28T04:47:31;96025.91;;;4.02;50.54
13581;BME280;6861;46.170;7.222;2023-01-28T04:49:59;96020.16;;;4.00;50.79
13581;BME280;6861;46.170;7.222;2023-01-28T04:52:27;96028.00;;;3.93;50.64
13581;BME280;6861;46.170;7.222;2023-01-28T04:54:56;96026.75;;;3.84;50.79
13581;BME280;6861;46.170;7.222;2023-01-28T04:57:26;96031.94;;;3.84;51.11
13581;BME280;6861;46.170;7.222;2023-01-28T04:59:54;96027.09;;;3.87;51.13
13581;BME280;6861;46.170;7.222;2023-01-28T05:02:22;96025.66;;;3.91;50.76
13581;BME280;6861;46.170;7.222;2023-01-28T05:04:50;96030.38;;;3.94;50.77
13581;BME280;6861;46.170;7.222;2023-01-28T05:07:18;96034.34;;;3.97;50.73
13581;BME280;6861;46.170;7.222;2023-01-28T05:09:46;96026.34;;;3.99;50.56
13581;BME280;6861;46.170;7.222;2023-01-28T05:12:16;96026.22;;;3.93;50.24
13581;BME280;6861;46.170;7.222;2023-01-28T05:14:44;96023.63;;;3.93;50.98
13581;BME280;6861;46.170;7.222;2023-01-28T05:17:12;96029.94;;;3.98;50.64
13581;BME280;6861;46.170;7.222;2023-01-28T05:19:40;96040.31;;;3.98;50.53
13581;BME280;6861;46.170;7.222;2023-01-28T05:22:09;96035.56;;;3.94;50.46
13581;BME280;6861;46.170;7.222;2023-01-28T05:24:37;96036.78;;;3.92;50.59
13581;BME280;6861;46.170;7.222;2023-01-28T05:27:05;96042.19;;;3.90;50.30
13581;BME280;6861;46.170;7.222;2023-01-28T05:29:34;96047.22;;;3.85;50.47
13581;BME280;6861;46.170;7.222;2023-01-28T05:32:03;96047.38;;;3.90;50.50
13581;BME280;6861;46.170;7.222;2023-01-28T05:34:31;96052.31;;;3.92;50.29
13581;BME280;6861;46.170;7.222;2023-01-28T05:36:59;96038.38;;;3.93;50.54
13581;BME280;6861;46.170;7.222;2023-01-28T05:39:27;96045.69;;;3.96;49.92
13581;BME280;6861;46.170;7.222;2023-01-28T05:41:55;96041.88;;;3.99;50.15
13581;BME280;6861;46.170;7.222;2023-01-28T05:44:23;96055.75;;;4.04;49.95
13581;BME280;6861;46.170;7.222;2023-01-28T05:46:52;96046.63;;;4.02;49.86
13581;BME280;6861;46.170;7.222;2023-01-28T05:49:20;96037.41;;;4.06;49.61
13581;BME280;6861;46.170;7.222;2023-01-28T05:51:48;96041.44;;;4.02;49.69
13581;BME280;6861;46.170;7.222;2023-01-28T05:54:16;96045.03;;;4.01;49.50
13581;BME280;6861;46.170;7.222;2023-01-28T05:56:44;96044.59;;;4.04;49.57
13581;BME280;6861;46.170;7.222;2023-01-28T05:59:13;96048.75;;;4.05;49.60
13581;BME280;6861;46.170;7.222;2023-01-28T06:01:42;96053.50;;;4.08;49.32
13581;BME280;6861;46.170;7.222;2023-01-28T06:04:12;96050.69;;;4.09;49.35
13581;BME280;6861;46.170;7.222;2023-01-28T06:06:40;96045.28;;;4.11;49.09
13581;BME280;6861;46.170;7.222;2023-01-28T06:09:07;96060.59;;;4.12;49.08
13581;BME280;6861;46.170;7.222;2023-01-28T06:11:36;96064.78;;;4.13;48.98
13581;BME280;6861;46.170;7.222;2023-01-28T06:14:04;96065.22;;;4.10;49.19
13581;BME280;6861;46.170;7.222;2023-01-28T06:16:32;96067.44;;;4.07;48.80
13581;BME280;6861;46.170;7.222;2023-01-28T06:19:01;96073.66;;;4.06;48.85
13581;BME280;6861;46.170;7.222;2023-01-28T06:21:30;96088.03;;;4.02;49.01
13581;BME280;6861;46.170;7.222;2023-01-28T06:23:58;96082.94;;;3.95;49.07
13581;BME280;6861;46.170;7.222;2023-01-28T06:26:27;96083.16;;;3.93;49.01
13581;BME280;6861;46.170;7.222;2023-01-28T06:28:55;96082.59;;;3.91;48.89
13581;BME280;6861;46.170;7.222;2023-01-28T06:31:22;96086.97;;;3.91;48.92
13581;BME280;6861;46.170;7.222;2023-01-28T06:33:51;96095.53;;;3.91;48.56
13581;BME280;6861;46.170;7.222;2023-01-28T06:36:19;96100.59;;;3.86;49.00
13581;BME280;6861;46.170;7.222;2023-01-28T06:38:48;96089.09;;;3.82;49.01
13581;BME280;6861;46.170;7.222;2023-01-28T06:41:16;96094.25;;;3.82;48.55
13581;BME280;6861;46.170;7.222;2023-01-28T06:43:44;96099.88;;;3.79;48.83
13581;BME280;6861;46.170;7.222;2023-01-28T06:46:12;96094.69;;;3.79;48.73
13581;BME280;6861;46.170;7.222;2023-01-28T06:48:40;96096.06;;;3.82;48.05
13581;BME280;6861;46.170;7.222;2023-01-28T06:51:08;96102.09;;;3.76;48.85
13581;BME280;6861;46.170;7.222;2023-01-28T06:53:36;96105.78;;;3.68;49.13
13581;BME280;6861;46.170;7.222;2023-01-28T06:56:06;96108.88;;;3.58;49.15
13581;BME280;6861;46.170;7.222;2023-01-28T06:58:35;96114.84;;;3.59;49.16
13581;BME280;6861;46.170;7.222;2023-01-28T07:01:03;96106.59;;;3.50;49.26
13581;BME280;6861;46.170;7.222;2023-01-28T07:03:31;96117.72;;;3.51;49.30
13581;BME280;6861;46.170;7.222;2023-01-28T07:05:59;96112.97;;;3.48;50.05
13581;BME280;6861;46.170;7.222;2023-01-28T07:08:27;96118.03;;;3.43;49.99
13581;BME280;6861;46.170;7.222;2023-01-28T07:10:56;96108.25;;;3.26;50.23
13581;BME280;6861;46.170;7.222;2023-01-28T07:13:25;96118.31;;;3.16;50.15
13581;BME280;6861;46.170;7.222;2023-01-28T07:15:53;96121.31;;;3.13;50.78
13581;BME280;6861;46.170;7.222;2023-01-28T07:18:21;96118.56;;;3.08;50.46
13581;BME280;6861;46.170;7.222;2023-01-28T07:20:49;96119.84;;;2.99;50.99
13581;BME280;6861;46.170;7.222;2023-01-28T07:23:17;96129.41;;;2.99;51.07
13581;BME280;6861;46.170;7.222;2023-01-28T07:25:45;96133.34;;;3.01;50.78
13581;BME280;6861;46.170;7.222;2023-01-28T07:28:14;96130.34;;;3.04;51.60
13581;BME280;6861;46.170;7.222;2023-01-28T07:30:49;96131.34;;;3.03;51.36
13581;BME280;6861;46.170;7.222;2023-01-28T07:33:19;96141.25;;;3.06;51.49
13581;BME280;6861;46.170;7.222;2023-01-28T07:35:47;96137.88;;;3.06;51.27
13581;BME280;6861;46.170;7.222;2023-01-28T07:38:15;96143.22;;;3.11;51.43
13581;BME280;6861;46.170;7.222;2023-01-28T07:40:43;96148.69;;;3.21;51.03
13581;BME280;6861;46.170;7.222;2023-01-28T07:43:12;96149.56;;;3.33;50.86
13581;BME280;6861;46.170;7.222;2023-01-28T07:45:40;96151.78;;;3.48;50.46
13581;BME280;6861;46.170;7.222;2023-01-28T07:48:11;96159.63;;;3.59;50.86
13581;BME280;6861;46.170;7.222;2023-01-28T07:50:40;96158.53;;;3.67;50.43
13581;BME280;6861;46.170;7.222;2023-01-28T07:53:10;96159.31;;;3.68;50.23
13581;BME280;6861;46.170;7.222;2023-01-28T07:55:38;96162.69;;;3.68;50.64
13581;BME280;6861;46.170;7.222;2023-01-28T07:58:08;96162.91;;;3.67;50.17
13581;BME280;6861;46.170;7.222;2023-01-28T08:00:37;96167.31;;;3.66;50.19
13581;BME280;6861;46.170;7.222;2023-01-28T08:03:08;96163.06;;;3.72;50.48
13581;BME280;6861;46.170;7.222;2023-01-28T08:05:41;96162.00;;;3.79;50.47
13581;BME280;6861;46.170;7.222;2023-01-28T08:08:11;96171.03;;;3.88;49.88
13581;BME280;6861;46.170;7.222;2023-01-28T08:10:40;96168.16;;;3.97;49.97
13581;BME280;6861;46.170;7.222;2023-01-28T08:13:10;96180.00;;;4.04;50.10
13581;BME280;6861;46.170;7.222;2023-01-28T08:15:39;96176.78;;;4.09;49.37
13581;BME280;6861;46.170;7.222;2023-01-28T08:18:08;96177.91;;;4.13;49.51
13581;BME280;6861;46.170;7.222;2023-01-28T08:20:40;96185.81;;;4.18;49.45
13581;BME280;6861;46.170;7.222;2023-01-28T08:23:12;96186.19;;;4.21;49.40
13581;BME280;6861;46.170;7.222;2023-01-28T08:25:40;96186.53;;;4.25;49.40
13581;BME280;6861;46.170;7.222;2023-01-28T08:28:09;96184.66;;;4.32;49.57
13581;BME280;6861;46.170;7.222;2023-01-28T08:30:38;96196.81;;;4.32;49.33
13581;BME280;6861;46.170;7.222;2023-01-28T08:33:07;96196.03;;;4.31;49.41
13581;BME280;6861;46.170;7.222;2023-01-28T08:35:36;96199.19;;;4.33;49.30
13581;BME280;6861;46.170;7.222;2023-01-28T08:38:06;96207.97;;;4.32;49.30
13581;BME280;6861;46.170;7.222;2023-01-28T08:40:35;96205.38;;;4.32;49.27
13581;BME280;6861;46.170;7.222;2023-01-28T08:43:03;96205.47;;;4.37;49.13
13581;BME280;6861;46.170;7.222;2023-01-28T08:45:31;96208.34;;;4.47;48.95
13581;BME280;6861;46.170;7.222;2023-01-28T08:48:01;96218.81;;;4.52;48.92
13581;BME280;6861;46.170;7.222;2023-01-28T08:50:32;96218.81;;;4.52;49.09
13581;BME280;6861;46.170;7.222;2023-01-28T08:53:04;96223.13;;;4.58;49.15
13581;BME280;6861;46.170;7.222;2023-01-28T08:55:34;96221.38;;;4.71;49.15
13581;BME280;6861;46.170;7.222;2023-01-28T08:58:03;96220.63;;;4.82;49.29
13581;BME280;6861;46.170;7.222;2023-01-28T09:00:33;96223.59;;;4.97;48.97
13581;BME280;6861;46.170;7.222;2023-01-28T09:03:02;96224.75;;;5.13;48.54
13581;BME280;6861;46.170;7.222;2023-01-28T09:05:32;96228.69;;;5.27;48.80
13581;BME280;6861;46.170;7.222;2023-01-28T09:08:01;96237.50;;;5.38;48.41
13581;BME280;6861;46.170;7.222;2023-01-28T09:10:29;96232.75;;;5.35;48.92
13581;BME280;6861;46.170;7.222;2023-01-28T09:13:04;96236.34;;;5.34;48.55
13581;BME280;6861;46.170;7.222;2023-01-28T09:15:32;96238.72;;;5.35;48.11
13581;BME280;6861;46.170;7.222;2023-01-28T09:18:01;96238.63;;;5.42;47.95
13581;BME280;6861;46.170;7.222;2023-01-28T09:20:29;96242.81;;;5.54;48.01
13581;BME280;6861;46.170;7.222;2023-01-28T09:22:58;96252.19;;;5.67;47.54
13581;BME280;6861;46.170;7.222;2023-01-28T09:25:27;96246.75;;;5.80;48.11
13581;BME280;6861;46.170;7.222;2023-01-28T09:27:55;96242.94;;;5.95;47.77
13581;BME280;6861;46.170;7.222;2023-01-28T09:30:25;96242.91;;;6.06;47.87
13581;BME280;6861;46.170;7.222;2023-01-28T09:32:54;96244.66;;;6.17;46.88
13581;BME280;6861;46.170;7.222;2023-01-28T09:35:23;96246.31;;;6.35;47.34
13581;BME280;6861;46.170;7.222;2023-01-28T09:37:55;96247.63;;;6.49;47.05
13581;BME280;6861;46.170;7.222;2023-01-28T09:40:30;96243.88;;;6.57;46.37
13581;BME280;6861;46.170;7.222;2023-01-28T09:43:11;96242.59;;;6.71;47.28
13581;BME280;6861;46.170;7.222;2023-01-28T09:45:47;96244.81;;;6.79;46.15
13581;BME280;6861;46.170;7.222;2023-01-28T09:48:18;96243.56;;;6.82;46.54
13581;BME280;6861;46.170;7.222;2023-01-28T09:50:50;96245.59;;;6.80;46.73
13581;BME280;6861;46.170;7.222;2023-01-28T09:53:21;96247.69;;;6.66;46.99
13581;BME280;6861;46.170;7.222;2023-01-28T09:55:54;96248.31;;;6.45;45.87
13581;BME280;6861;46.170;7.222;2023-01-28T09:58:23;96254.00;;;6.42;46.10
13581;BME280;6861;46.170;7.222;2023-01-28T10:00:56;96251.16;;;6.43;45.79
13581;BME280;6861;46.170;7.222;2023-01-28T10:03:47;96260.75;;;6.43;46.69
13581;BME280;6861;46.170;7.222;2023-01-28T10:06:27;96251.63;;;6.40;46.81
13581;BME280;6861;46.170;7.222;2023-01-28T10:09:26;96256.81;;;6.40;46.26
13581;BME280;6861;46.170;7.222;2023-01-28T10:12:07;96252.88;;;6.38;46.29
13581;BME280;6861;46.170;7.222;2023-01-28T10:14:52;96251.28;;;6.37;46.70
13581;BME280;6861;46.170;7.222;2023-01-28T10:17:25;96248.25;;;6.28;46.93
13581;BME280;6861;46.170;7.222;2023-01-28T10:19:58;96253.47;;;6.28;46.20
13581;BME280;6861;46.170;7.222;2023-01-28T10:22:31;96251.69;;;6.17;45.77
13581;BME280;6861;46.170;7.222;2023-01-28T10:25:02;96241.06;;;6.07;46.69
13581;BME280;6861;46.170;7.222;2023-01-28T10:27:35;96236.81;;;6.01;46.35
13581;BME280;6861;46.170;7.222;2023-01-28T10:30:16;96231.53;;;5.96;46.05
13581;BME280;6861;46.170;7.222;2023-01-28T10:32:51;96229.84;;;5.89;46.21
13581;BME280;6861;46.170;7.222;2023-01-28T10:35:20;96213.56;;;5.82;46.16
13581;BME280;6861;46.170;7.222;2023-01-28T10:37:49;96223.84;;;5.77;46.59
13581;BME280;6861;46.170;7.222;2023-01-28T10:40:19;96224.06;;;5.64;46.17
13581;BME280;6861;46.170;7.222;2023-01-28T10:42:47;96223.63;;;5.55;46.58
13581;BME280;6861;46.170;7.222;2023-01-28T10:45:17;96222.59;;;5.45;46.35
13581;BME280;6861;46.170;7.222;2023-01-28T10:47:52;96226.31;;;5.37;46.65
13581;BME280;6861;46.170;7.222;2023-01-28T10:50:23;96223.72;;;5.25;46.02
13581;BME280;6861;46.170;7.222;2023-01-28T10:52:53;96212.69;;;5.18;46.72
13581;BME280;6861;46.170;7.222;2023-01-28T10:55:22;96214.38;;;5.13;46.26
13581;BME280;6861;46.170;7.222;2023-01-28T10:57:51;96213.47;;;5.07;46.47
13581;BME280;6861;46.170;7.222;2023-01-28T11:00:25;96215.94;;;5.02;46.65
13581;BME280;6861;46.170;7.222;2023-01-28T11:02:55;96202.19;;;5.02;46.92
13581;BME280;6861;46.170;7.222;2023-01-28T11:05:26;96206.44;;;4.96;47.10
13581;BME280;6861;46.170;7.222;2023-01-28T11:08:08;96198.25;;;5.11;47.27
13581;BME280;6861;46.170;7.222;2023-01-28T11:10:39;96205.13;;;5.40;47.24
13581;BME280;6861;46.170;7.222;2023-01-28T11:13:14;96194.59;;;5.70;46.95
13581;BME280;6861;46.170;7.222;2023-01-28T11:15:47;96195.59;;;6.04;46.51
13581;BME280;6861;46.170;7.222;2023-01-28T11:18:20;96193.09;;;6.38;45.50
13581;BME280;6861;46.170;7.222;2023-01-28T11:20:52;96189.22;;;6.69;45.57
13581;BME280;6861;46.170;7.222;2023-01-28T11:23:25;96187.56;;;6.96;44.76
13581;BME280;6861;46.170;7.222;2023-01-28T11:26:03;96192.16;;;7.22;45.32
13581;BME280;6861;46.170;7.222;2023-01-28T11:28:34;96188.84;;;7.44;44.69
13581;BME280;6861;46.170;7.222;2023-01-28T11:31:02;96187.00;;;7.61;44.01
13581;BME280;6861;46.170;7.222;2023-01-28T11:33:36;96174.72;;;7.78;44.07
13581;BME280;6861;46.170;7.222;2023-01-28T11:36:10;96174.34;;;7.92;43.69
13581;BME280;6861;46.170;7.222;2023-01-28T11:38:48;96176.03;;;8.03;43.28
13581;BME280;6861;46.170;7.222;2023-01-28T11:41:17;96164.66;;;8.09;44.11
13581;BME280;6861;46.170;7.222;2023-01-28T11:43:52;96164.16;;;8.12;43.49
13581;BME280;6861;46.170;7.222;2023-01-28T11:46:38;96167.84;;;8.16;42.97
13581;BME280;6861;46.170;7.222;2023-01-28T11:49:19;96162.88;;;8.14;42.86
13581;BME280;6861;46.170;7.222;2023-01-28T11:51:53;96156.88;;;8.14;42.60
13581;BME280;6861;46.170;7.222;2023-01-28T11:54:35;96159.97;;;8.11;42.14
13581;BME280;6861;46.170;7.222;2023-01-28T11:57:15;96160.69;;;8.06;42.78
13581;BME280;6861;46.170;7.222;2023-01-28T11:59:53;96167.69;;;8.01;42.25
13581;BME280;6861;46.170;7.222;2023-01-28T12:02:38;96161.31;;;7.92;42.56
13581;BME280;6861;46.170;7.222;2023-01-28T12:05:23;96148.16;;;7.81;42.21
13581;BME280;6861;46.170;7.222;2023-01-28T12:08:02;96152.97;;;7.68;42.02
13581;BME280;6861;46.170;7.222;2023-01-28T12:10:38;96145.25;;;7.56;42.83
13581;BME280;6861;46.170;7.222;2023-01-28T12:13:27;96145.59;;;7.43;42.52
13581;BME280;6861;46.170;7.222;2023-01-28T12:16:17;96148.47;;;7.24;41.76
13581;BME280;6861;46.170;7.222;2023-01-28T12:19:00;96147.53;;;7.14;42.49
13581;BME280;6861;46.170;7.222;2023-01-28T12:21:44;96144.53;;;7.05;41.69
13581;BME280;6861;46.170;7.222;2023-01-28T12:24:29;96146.81;;;7.02;41.66
13581;BME280;6861;46.170;7.222;2023-01-28T12:27:07;96150.69;;;6.99;42.04
13581;BME280;6861;46.170;7.222;2023-01-28T12:29:42;96152.81;;;7.02;41.13
13581;BME280;6861;46.170;7.222;2023-01-28T12:32:29;96149.59;;;6.95;41.31
13581;BME280;6861;46.170;7.222;2023-01-28T12:35:16;96142.19;;;6.87;41.84
13581;BME280;6861;46.170;7.222;2023-01-28T12:37:58;96145.34;;;6.89;41.39
13581;BME280;6861;46.170;7.222;2023-01-28T12:40:41;96144.34;;;6.90;40.92
13581;BME280;6861;46.170;7.222;2023-01-28T12:43:16;96150.59;;;6.94;41.15
13581;BME280;6861;46.170;7.222;2023-01-28T12:45:50;96140.94;;;6.89;41.89
13581;BME280;6861;46.170;7.222;2023-01-28T12:48:25;96153.88;;;6.84;41.91
13581;BME280;6861;46.170;7.222;2023-01-28T12:50:59;96151.03;;;6.86;41.26
13581;BME280;6861;46.170;7.222;2023-01-28T12:53:39;96147.88;;;6.84;40.79
13581;BME280;6861;46.170;7.222;2023-01-28T12:56:13;96149.38;;;6.80;41.21
13581;BME280;6861;46.170;7.222;2023-01-28T12:58:46;96146.44;;;6.76;40.65
13581;BME280;6861;46.170;7.222;2023-01-28T13:01:20;96144.56;;;6.72;40.84
13581;BME280;6861;46.170;7.222;2023-01-28T13:03:53;96152.28;;;6.67;41.25
13581;BME280;6861;46.170;7.222;2023-01-28T13:06:28;96152.75;;;6.64;40.68
13581;BME280;6861;46.170;7.222;2023-01-28T13:09:01;96147.31;;;6.65;40.97
13581;BME280;6861;46.170;7.222;2023-01-28T13:11:37;96148.66;;;6.68;41.18
13581;BME280;6861;46.170;7.222;2023-01-28T13:14:05;96145.81;;;6.69;40.66
13581;BME280;6861;46.170;7.222;2023-01-28T13:16:34;96157.94;;;6.64;40.74
13581;BME280;6861;46.170;7.222;2023-01-28T13:19:06;96153.34;;;6.54;40.76
13581;BME280;6861;46.170;7.222;2023-01-28T13:21:35;96140.59;;;6.52;40.46
13581;BME280;6861;46.170;7.222;2023-01-28T13:24:31;96142.50;;;6.57;40.40
13581;BME280;6861;46.170;7.222;2023-01-28T13:27:11;96142.81;;;6.61;39.88
13581;BME280;6861;46.170;7.222;2023-01-28T13:29:39;96148.56;;;6.63;40.18
13581;BME280;6861;46.170;7.222;2023-01-28T13:32:28;96143.91;;;6.65;40.07
13581;BME280;6861;46.170;7.222;2023-01-28T13:34:58;96144.25;;;6.68;40.04
13581;BME280;6861;46.170;7.222;2023-01-28T13:37:30;96152.03;;;6.68;40.65
13581;BME280;6861;46.170;7.222;2023-01-28T13:40:07;96151.81;;;6.70;39.55
13581;BME280;6861;46.170;7.222;2023-01-28T13:42:57;96148.09;;;6.66;39.91
13581;BME280;6861;46.170;7.222;2023-01-28T13:45:27;96143.44;;;6.68;40.45
13581;BME280;6861;46.170;7.222;2023-01-28T13:48:00;96150.22;;;6.69;41.15
13581;BME280;6861;46.170;7.222;2023-01-28T13:50:36;96147.84;;;6.67;40.79